Time;durP1;ratioP1;P1;durP2;ratioP2;P2;SDS_P1;SDS_P2;PMS_P1;PMS_P2;Temp;Humidity;BMP_temperature;BMP_pressure;BME280_temperature;BME280_humidity;BME280_pressure;Samples;Min_cycle;Max_cycle;Signal;HPM_P1;HPM_P2
2021/04/30 00:00:01;;;;;;;8.18;6.85;;;7.70;48.20;;;;;;6099727;23;20201;-74
2021/04/30 00:02:28;;;;;;;7.03;6.20;;;7.70;49.30;;;;;;6100143;23;20256;-75
2021/04/30 00:04:54;;;;;;;6.63;5.93;;;7.70;49.00;;;;;;6100990;23;20189;-75
2021/04/30 00:07:21;;;;;;;10.68;6.70;;;7.70;49.20;;;;;;6098208;23;20413;-74
2021/04/30 00:09:48;;;;;;;6.50;5.88;;;7.60;50.40;;;;;;6098830;23;20590;-76
2021/04/30 00:12:14;;;;;;;8.20;6.30;;;7.50;50.10;;;;;;6099881;23;20188;-75
2021/04/30 00:14:41;;;;;;;7.38;6.25;;;7.40;50.60;;;;;;6098978;23;20632;-75
2021/04/30 00:17:07;;;;;;;7.03;6.32;;;7.30;50.60;;;;;;6106777;23;20256;-74
2021/04/30 00:19:34;;;;;;;7.70;6.90;;;7.30;50.90;;;;;;6113003;23;20205;-74
2021/04/30 00:22:00;;;;;;;6.72;6.13;;;7.30;51.40;;;;;;6111849;23;20185;-75
2021/04/30 00:24:27;;;;;;;7.28;6.15;;;7.20;52.10;;;;;;6117151;23;20180;-74
2021/04/30 00:26:54;;;;;;;6.95;6.25;;;7.20;52.60;;;;;;6108171;23;20358;-74
2021/04/30 00:29:21;;;;;;;7.50;6.70;;;7.10;53.20;;;;;;6099588;23;20211;-74
2021/04/30 00:31:48;;;;;;;7.00;6.30;;;7.00;54.70;;;;;;6100382;23;20265;-74
2021/04/30 00:34:14;;;;;;;6.38;5.63;;;7.00;55.60;;;;;;6099366;23;20189;-74
2021/04/30 00:36:41;;;;;;;8.20;7.00;;;6.90;56.50;;;;;;6096230;23;20244;-73
2021/04/30 00:39:08;;;;;;;7.57;6.82;;;6.90;57.00;;;;;;6096725;23;20265;-74
2021/04/30 00:41:34;;;;;;;8.82;6.78;;;6.90;57.00;;;;;;6106396;23;20525;-74
2021/04/30 00:44:06;;;;;;;6.95;6.28;;;6.80;57.70;;;;;;6097319;23;20232;-75
2021/04/30 00:46:33;;;;;;;7.20;6.15;;;6.70;59.60;;;;;;6096397;23;20181;-76
2021/04/30 00:49:00;;;;;;;7.57;6.20;;;6.70;60.60;;;;;;6096787;23;20686;-75
2021/04/30 00:51:27;;;;;;;7.50;6.70;;;6.70;61.90;;;;;;6098247;23;20181;-74
2021/04/30 00:53:53;;;;;;;7.32;6.35;;;6.70;62.50;;;;;;6099202;23;20211;-74
2021/04/30 00:56:20;;;;;;;7.78;6.97;;;6.60;64.10;;;;;;6098903;23;20213;-74
2021/04/30 00:58:47;;;;;;;7.07;6.43;;;6.60;64.10;;;;;;6098789;23;20632;-75
2021/04/30 01:01:15;;;;;;;8.32;6.88;;;6.50;65.20;;;;;;6100618;23;20185;-75
2021/04/30 01:03:42;;;;;;;7.95;6.82;;;6.50;65.60;;;;;;6108498;23;20228;-75
2021/04/30 01:06:09;;;;;;;8.13;6.68;;;6.50;67.00;;;;;;6117818;23;20173;-74
2021/04/30 01:08:35;;;;;;;7.03;6.43;;;6.50;67.60;;;;;;6119678;23;20217;-74
2021/04/30 01:11:02;;;;;;;7.93;7.15;;;6.50;68.80;;;;;;6111342;23;20286;-75
2021/04/30 01:13:28;;;;;;;9.68;7.82;;;6.60;70.00;;;;;;6097743;23;20208;-75
2021/04/30 01:15:55;;;;;;;7.70;6.78;;;6.50;70.00;;;;;;6098388;23;20208;-74
2021/04/30 01:18:22;;;;;;;6.85;6.15;;;6.40;69.90;;;;;;6100435;23;20231;-74
2021/04/30 01:20:56;;;;;;;7.35;6.65;;;6.30;71.10;;;;;;6096572;23;20185;-73
2021/04/30 01:23:23;;;;;;;8.15;7.13;;;6.30;72.30;;;;;;6094667;23;20189;-74
2021/04/30 01:25:49;;;;;;;7.90;7.20;;;6.20;72.40;;;;;;6095648;23;20316;-74
2021/04/30 01:28:16;;;;;;;7.35;6.75;;;6.20;73.80;;;;;;6096006;23;20189;-74
2021/04/30 01:30:43;;;;;;;8.95;8.00;;;6.20;74.00;;;;;;6097682;23;20212;-75
2021/04/30 01:33:17;;;;;;;8.05;7.18;;;6.20;74.00;;;;;;6103857;23;20186;-73
2021/04/30 01:35:44;;;;;;;8.90;8.10;;;6.20;75.40;;;;;;6106378;23;20646;-74
2021/04/30 01:38:10;;;;;;;8.90;6.85;;;6.20;75.60;;;;;;6099491;23;20237;-75
2021/04/30 01:40:38;;;;;;;8.30;7.50;;;6.10;75.40;;;;;;6092531;23;20231;-73
2021/04/30 01:43:06;;;;;;;8.35;6.82;;;6.10;76.10;;;;;;6095822;23;20192;-73
2021/04/30 01:45:38;;;;;;;7.25;6.55;;;6.10;76.30;;;;;;6096164;23;20260;-73
2021/04/30 01:48:09;;;;;;;8.00;7.20;;;6.10;76.40;;;;;;6095596;23;20186;-73
2021/04/30 01:50:36;;;;;;;8.30;7.47;;;6.00;76.40;;;;;;6127284;23;20220;-73
2021/04/30 01:53:02;;;;;;;8.05;7.32;;;6.00;76.70;;;;;;6127520;23;20184;-73
2021/04/30 01:55:30;;;;;;;8.27;7.47;;;5.90;76.70;;;;;;6142312;23;20189;-73
2021/04/30 01:57:59;;;;;;;8.90;7.75;;;5.80;77.30;;;;;;6141984;23;20518;-72
2021/04/30 02:00:26;;;;;;;8.27;7.35;;;5.80;78.00;;;;;;6142559;23;20232;-73
2021/04/30 02:02:55;;;;;;;8.15;7.32;;;5.80;77.90;;;;;;6144612;23;20208;-72
2021/04/30 02:05:24;;;;;;;9.07;7.82;;;5.70;78.70;;;;;;6142778;23;20196;-72
2021/04/30 02:07:50;;;;;;;9.27;8.25;;;5.70;78.50;;;;;;6144734;23;20669;-72
2021/04/30 02:10:20;;;;;;;11.70;8.98;;;5.60;78.80;;;;;;6142573;23;20205;-74
2021/04/30 02:12:47;;;;;;;7.82;7.13;;;5.60;79.80;;;;;;6142767;23;20267;-73
2021/04/30 02:15:18;;;;;;;10.15;8.30;;;5.60;80.00;;;;;;6131953;23;20311;-74
2021/04/30 02:17:45;;;;;;;8.35;7.45;;;5.60;80.40;;;;;;6132438;23;20176;-73
2021/04/30 02:20:13;;;;;;;9.38;8.15;;;5.60;81.70;;;;;;6132675;23;20200;-74
2021/04/30 02:22:40;;;;;;;8.85;7.95;;;5.50;81.90;;;;;;6132320;23;20333;-73
2021/04/30 02:25:09;;;;;;;8.98;8.00;;;5.40;81.70;;;;;;6130707;23;20184;-73
2021/04/30 02:27:36;;;;;;;10.10;8.63;;;5.40;82.60;;;;;;6131142;23;20216;-74
2021/04/30 02:30:03;;;;;;;8.82;7.90;;;5.40;84.00;;;;;;6129844;23;20212;-72
2021/04/30 02:32:32;;;;;;;12.48;7.93;;;5.30;84.20;;;;;;6130730;23;20240;-74
2021/04/30 02:34:59;;;;;;;8.80;7.82;;;5.20;84.00;;;;;;6131052;23;20181;-73
2021/04/30 02:37:25;;;;;;;10.60;9.07;;;5.10;84.70;;;;;;6130449;23;20235;-73
2021/04/30 02:39:52;;;;;;;10.52;8.10;;;5.00;85.60;;;;;;6131482;23;20208;-73
2021/04/30 02:42:19;;;;;;;9.98;8.00;;;5.00;86.10;;;;;;6130220;23;20224;-73
2021/04/30 02:44:45;;;;;;;8.73;7.82;;;5.00;87.10;;;;;;6143420;23;20181;-72
2021/04/30 02:47:12;;;;;;;9.57;7.85;;;5.10;87.90;;;;;;6130708;23;20204;-73
2021/04/30 02:49:41;;;;;;;9.82;8.07;;;5.00;87.30;;;;;;6126260;23;20291;-73
2021/04/30 02:52:09;;;;;;;10.75;9.10;;;5.00;88.10;;;;;;6126252;23;20184;-73
2021/04/30 02:54:36;;;;;;;9.98;8.98;;;5.00;89.00;;;;;;6126342;23;20185;-74
2021/04/30 02:57:04;;;;;;;10.48;9.20;;;5.10;87.80;;;;;;6125617;23;20180;-73
2021/04/30 02:59:31;;;;;;;9.13;8.07;;;5.20;87.30;;;;;;6125971;23;20203;-73
2021/04/30 03:01:57;;;;;;;9.95;8.95;;;5.20;87.10;;;;;;6126166;23;20184;-72
2021/04/30 03:04:24;;;;;;;9.65;8.65;;;5.10;85.40;;;;;;6125865;23;20181;-73
2021/04/30 03:06:51;;;;;;;8.48;7.68;;;5.10;85.60;;;;;;6125097;23;20630;-73
2021/04/30 03:09:18;;;;;;;10.18;8.70;;;5.10;85.60;;;;;;6125429;23;20291;-73
2021/04/30 03:11:45;;;;;;;10.82;8.63;;;5.10;86.70;;;;;;6125563;23;20219;-73
2021/04/30 03:14:11;;;;;;;9.52;8.45;;;5.10;86.80;;;;;;6125842;23;20223;-72
2021/04/30 03:16:38;;;;;;;9.10;8.20;;;5.00;86.20;;;;;;6125288;23;20180;-73
2021/04/30 03:19:04;;;;;;;11.70;9.45;;;5.00;87.00;;;;;;6126337;23;20586;-73
2021/04/30 03:21:31;;;;;;;12.02;8.63;;;5.00;88.60;;;;;;6126278;23;20185;-72
2021/04/30 03:23:59;;;;;;;12.40;8.85;;;5.00;89.50;;;;;;6125743;23;20184;-75
2021/04/30 03:26:25;;;;;;;9.50;7.75;;;5.00;88.40;;;;;;6123678;23;20266;-73
2021/04/30 03:28:51;;;;;;;10.75;9.02;;;5.00;88.40;;;;;;6123549;23;20259;-73
2021/04/30 03:31:18;;;;;;;12.63;9.68;;;4.90;88.20;;;;;;6125471;23;20236;-73
2021/04/30 03:33:44;;;;;;;10.60;8.30;;;5.00;89.60;;;;;;6126749;23;20242;-74
2021/04/30 03:36:10;;;;;;;9.63;7.65;;;5.00;88.90;;;;;;6126160;23;20184;-73
2021/04/30 03:38:37;;;;;;;10.63;8.90;;;5.00;88.50;;;;;;6126036;23;20185;-71
2021/04/30 03:41:04;;;;;;;9.55;8.35;;;5.00;88.50;;;;;;6126376;23;20176;-73
2021/04/30 03:43:31;;;;;;;10.10;8.98;;;5.00;88.60;;;;;;6127746;23;20622;-73
2021/04/30 03:45:58;;;;;;;9.98;8.60;;;5.00;88.20;;;;;;6127153;23;20185;-73
2021/04/30 03:48:27;;;;;;;11.48;9.80;;;5.10;88.40;;;;;;6129737;23;20185;-73
2021/04/30 03:50:54;;;;;;;11.73;9.43;;;5.10;87.10;;;;;;6130300;23;20534;-73
2021/04/30 03:53:21;;;;;;;9.60;8.60;;;5.10;87.00;;;;;;6132989;23;20184;-73
2021/04/30 03:55:47;;;;;;;10.45;9.07;;;5.20;86.70;;;;;;6129888;23;20195;-75
2021/04/30 03:58:15;;;;;;;13.02;9.65;;;5.20;86.20;;;;;;6126013;23;20219;-74
2021/04/30 04:00:41;;;;;;;12.30;9.95;;;5.10;85.70;;;;;;6126659;23;20201;-73
2021/04/30 04:03:08;;;;;;;12.50;9.98;;;5.20;85.70;;;;;;6126560;23;20492;-77
2021/04/30 04:05:34;;;;;;;12.68;9.25;;;5.20;85.70;;;;;;6126461;23;20212;-73
2021/04/30 04:08:01;;;;;;;10.73;8.80;;;5.30;85.50;;;;;;6125305;23;20207;-74
2021/04/30 04:10:27;;;;;;;10.60;9.50;;;5.40;84.00;;;;;;6126966;23;20208;-72
2021/04/30 04:12:53;;;;;;;11.13;9.93;;;5.50;83.70;;;;;;6125332;23;20217;-74
2021/04/30 04:15:21;;;;;;;11.00;9.15;;;5.50;82.80;;;;;;6126720;23;20267;-73
2021/04/30 04:17:47;;;;;;;10.20;8.90;;;5.60;82.70;;;;;;6125806;23;20216;-72
2021/04/30 04:20:14;;;;;;;12.00;9.10;;;5.70;82.00;;;;;;6126277;23;20729;-74
2021/04/30 04:22:40;;;;;;;10.38;9.05;;;5.80;82.10;;;;;;6127588;23;20211;-73
2021/04/30 04:25:07;;;;;;;9.38;8.10;;;5.90;82.10;;;;;;6126825;23;20578;-74
2021/04/30 04:27:34;;;;;;;10.50;9.15;;;5.90;80.80;;;;;;6127331;23;20181;-74
2021/04/30 04:30:01;;;;;;;9.88;8.20;;;5.90;79.00;;;;;;6131874;23;20243;-73
2021/04/30 04:32:28;;;;;;;10.30;8.60;;;5.90;79.00;;;;;;6145008;23;20172;-73
2021/04/30 04:34:54;;;;;;;11.80;8.82;;;5.90;78.70;;;;;;6133322;23;20268;-73
2021/04/30 04:37:21;;;;;;;8.32;7.47;;;6.00;78.10;;;;;;6127807;23;20184;-73
2021/04/30 04:39:47;;;;;;;9.27;8.35;;;6.00;78.50;;;;;;6127175;23;20204;-73
2021/04/30 04:42:14;;;;;;;9.98;8.55;;;6.00;77.60;;;;;;6126237;23;20195;-73
2021/04/30 04:44:40;;;;;;;10.23;9.07;;;6.00;78.00;;;;;;6127212;23;20184;-73
2021/04/30 04:47:06;;;;;;;11.40;9.57;;;6.10;78.00;;;;;;6126554;23;20575;-74
2021/04/30 04:49:34;;;;;;;11.25;9.15;;;6.00;75.40;;;;;;6127666;23;20236;-73
2021/04/30 04:52:00;;;;;;;9.88;8.52;;;5.90;73.80;;;;;;6129481;23;20187;-74
2021/04/30 04:54:28;;;;;;;10.75;8.98;;;6.00;74.80;;;;;;6129026;23;20492;-72
2021/04/30 04:56:54;;;;;;;10.32;9.32;;;6.10;75.10;;;;;;6129704;23;20267;-73
2021/04/30 04:59:21;;;;;;;11.55;9.95;;;6.20;75.00;;;;;;6140474;23;20251;-73
2021/04/30 05:01:47;;;;;;;13.30;9.60;;;6.40;74.20;;;;;;6129298;23;20185;-73
2021/04/30 05:04:13;;;;;;;10.77;8.68;;;6.50;72.80;;;;;;6129298;23;20639;-73
2021/04/30 05:06:41;;;;;;;9.90;8.55;;;6.60;71.70;;;;;;6129905;23;20652;-73
2021/04/30 05:09:07;;;;;;;12.32;9.25;;;6.70;70.10;;;;;;6131499;23;20666;-74
2021/04/30 05:11:34;;;;;;;9.13;8.10;;;6.80;68.00;;;;;;6132039;23;20192;-72
2021/04/30 05:14:00;;;;;;;9.63;8.40;;;6.80;66.10;;;;;;6141470;23;20176;-73
2021/04/30 05:16:27;;;;;;;9.30;8.38;;;6.70;65.80;;;;;;6150023;23;20172;-73
2021/04/30 05:18:53;;;;;;;10.80;8.90;;;6.70;65.70;;;;;;6150360;23;20208;-73
2021/04/30 05:21:20;;;;;;;12.95;9.70;;;6.70;65.70;;;;;;6147261;23;20188;-72
2021/04/30 05:23:47;;;;;;;10.02;8.73;;;6.60;65.60;;;;;;6148795;23;20183;-73
2021/04/30 05:26:13;;;;;;;11.13;8.65;;;6.80;65.80;;;;;;6150335;23;20192;-71
2021/04/30 05:28:40;;;;;;;11.65;9.65;;;6.90;65.60;;;;;;6151401;23;20160;-73
2021/04/30 05:31:06;;;;;;;11.20;9.07;;;7.00;63.50;;;;;;6151380;23;20204;-73
2021/04/30 05:33:33;;;;;;;10.85;9.20;;;6.90;62.90;;;;;;6151655;23;20179;-71
2021/04/30 05:35:59;;;;;;;12.38;10.13;;;6.90;64.20;;;;;;6150698;23;20189;-72
2021/04/30 05:38:26;;;;;;;11.20;9.95;;;7.00;64.10;;;;;;6148596;23;20183;-73
2021/04/30 05:40:53;;;;;;;11.00;8.65;;;7.10;63.40;;;;;;6146575;23;20243;-73
2021/04/30 05:43:19;;;;;;;12.75;9.77;;;7.20;61.10;;;;;;6129115;23;20213;-73
2021/04/30 05:45:46;;;;;;;11.15;10.05;;;7.20;59.30;;;;;;6125548;23;20188;-74
2021/04/30 05:48:12;;;;;;;11.73;9.73;;;7.00;60.00;;;;;;6124904;23;20485;-75
2021/04/30 05:50:38;;;;;;;13.10;10.02;;;6.90;60.20;;;;;;6127129;23;20200;-75
2021/04/30 05:53:05;;;;;;;12.30;9.95;;;6.90;59.20;;;;;;6128639;23;20515;-76
2021/04/30 05:55:31;;;;;;;11.77;9.40;;;7.00;58.50;;;;;;6128908;23;20234;-75
2021/04/30 05:57:58;;;;;;;13.88;10.57;;;7.00;57.80;;;;;;6127672;23;20211;-73
2021/04/30 06:00:25;;;;;;;13.88;10.18;;;6.80;57.80;;;;;;6128181;23;20279;-75
2021/04/30 06:02:51;;;;;;;11.77;10.27;;;7.00;57.40;;;;;;6128447;23;20192;-74
2021/04/30 06:05:18;;;;;;;13.60;10.43;;;7.00;57.10;;;;;;6127954;23;20185;-73
2021/04/30 06:07:44;;;;;;;11.00;9.77;;;7.00;57.10;;;;;;6126788;23;20190;-73
2021/04/30 06:10:10;;;;;;;11.70;9.35;;;7.20;57.20;;;;;;6127781;23;20207;-74
2021/04/30 06:12:37;;;;;;;11.75;10.25;;;7.20;57.10;;;;;;6128789;23;20587;-75
2021/04/30 06:15:06;;;;;;;13.15;11.40;;;7.40;55.80;;;;;;6128822;23;20234;-76
2021/04/30 06:17:32;;;;;;;14.02;9.10;;;7.40;54.40;;;;;;6127606;23;20263;-73
2021/04/30 06:19:58;;;;;;;12.70;9.68;;;7.20;54.80;;;;;;6127744;23;20200;-74
2021/04/30 06:22:25;;;;;;;12.13;10.35;;;7.30;54.20;;;;;;6127313;23;20188;-73
2021/04/30 06:24:52;;;;;;;12.07;10.05;;;7.30;54.50;;;;;;6130898;23;20185;-73
2021/04/30 06:27:18;;;;;;;13.95;10.75;;;7.30;55.00;;;;;;6135221;23;20200;-73
2021/04/30 06:29:45;;;;;;;12.45;9.77;;;7.30;54.80;;;;;;6134290;23;20291;-73
2021/04/30 06:32:12;;;;;;;13.25;10.27;;;7.40;54.90;;;;;;6128864;23;20184;-74
2021/04/30 06:34:38;;;;;;;12.32;10.52;;;7.50;55.00;;;;;;6129537;23;20214;-73
2021/04/30 06:37:05;;;;;;;12.25;10.55;;;7.30;55.40;;;;;;6126305;23;20319;-73
2021/04/30 06:39:31;;;;;;;14.13;10.52;;;7.50;56.10;;;;;;6129024;23;20291;-75
2021/04/30 06:42:02;;;;;;;12.75;10.40;;;7.30;55.40;;;;;;6130218;23;20561;-72
2021/04/30 06:44:28;;;;;;;13.40;10.95;;;7.30;56.60;;;;;;6132130;23;20169;-73
2021/04/30 06:46:55;;;;;;;13.27;11.55;;;7.50;56.40;;;;;;6130605;23;20604;-73
2021/04/30 06:49:22;;;;;;;12.57;10.75;;;7.80;55.40;;;;;;6129317;23;20205;-75
2021/04/30 06:51:49;;;;;;;12.88;10.15;;;7.70;54.50;;;;;;6130737;23;20456;-73
2021/04/30 06:54:16;;;;;;;11.82;10.57;;;7.80;55.20;;;;;;6130300;23;20180;-73
2021/04/30 06:56:42;;;;;;;11.30;9.98;;;7.70;53.90;;;;;;6126531;23;20669;-74
2021/04/30 06:59:09;;;;;;;13.00;10.07;;;7.60;55.20;;;;;;6129744;23;20204;-74
2021/04/30 07:01:36;;;;;;;12.10;10.85;;;7.80;54.80;;;;;;6129306;23;20185;-75
2021/04/30 07:04:02;;;;;;;12.90;10.27;;;7.70;53.90;;;;;;6127634;23;20249;-74
2021/04/30 07:06:30;;;;;;;16.27;12.40;;;7.70;55.00;;;;;;6127648;23;20192;-74
2021/04/30 07:08:56;;;;;;;15.48;11.00;;;7.80;53.10;;;;;;6126706;23;20275;-75
2021/04/30 07:11:22;;;;;;;14.77;12.23;;;7.50;54.10;;;;;;6126495;23;20185;-74
2021/04/30 07:13:49;;;;;;;14.93;11.93;;;7.50;55.20;;;;;;6126204;23;20184;-76
2021/04/30 07:16:15;;;;;;;15.40;12.13;;;7.40;55.80;;;;;;6125802;23;20188;-75
2021/04/30 07:18:42;;;;;;;15.30;12.40;;;7.70;55.10;;;;;;6126124;23;20632;-73
2021/04/30 07:21:09;;;;;;;16.42;12.68;;;7.70;54.70;;;;;;6126026;23;20623;-74
2021/04/30 07:23:36;;;;;;;13.60;11.70;;;7.60;55.50;;;;;;6125941;23;20195;-75
2021/04/30 07:26:03;;;;;;;13.93;11.30;;;7.70;54.70;;;;;;6126651;23;20212;-73
2021/04/30 07:28:29;;;;;;;14.32;12.38;;;7.80;54.20;;;;;;6125148;23;20189;-75
2021/04/30 07:30:56;;;;;;;16.70;13.25;;;7.80;55.00;;;;;;6126902;23;20235;-76
2021/04/30 07:33:23;;;;;;;17.38;13.18;;;7.70;55.50;;;;;;6126443;23;20658;-75
2021/04/30 07:35:49;;;;;;;16.05;12.90;;;7.50;56.80;;;;;;6126863;23;20215;-75
2021/04/30 07:38:16;;;;;;;18.58;13.45;;;7.60;57.60;;;;;;6126111;23;20573;-75
2021/04/30 07:40:44;;;;;;;14.68;13.07;;;7.70;57.70;;;;;;6102553;23;20230;-81
2021/04/30 07:43:11;;;;;;;16.80;13.38;;;7.60;57.60;;;;;;6100500;23;20189;-79
2021/04/30 07:45:38;;;;;;;15.98;14.00;;;7.70;57.70;;;;;;6101891;23;20232;-80
2021/04/30 07:48:05;;;;;;;21.05;13.93;;;7.80;57.50;;;;;;6104067;23;20200;-78
2021/04/30 07:50:32;;;;;;;22.17;14.60;;;7.70;57.70;;;;;;6126683;23;20204;-79
2021/04/30 07:52:59;;;;;;;20.98;15.27;;;7.80;57.80;;;;;;6131964;23;20200;-80
2021/04/30 07:55:25;;;;;;;18.92;15.13;;;7.60;57.60;;;;;;6132417;23;20181;-79
2021/04/30 07:57:53;;;;;;;23.10;14.07;;;7.70;59.40;;;;;;6129285;23;20185;-79
2021/04/30 08:00:20;;;;;;;17.15;13.98;;;7.90;57.90;;;;;;6131679;23;20501;-80
2021/04/30 08:02:47;;;;;;;16.77;14.55;;;7.90;57.00;;;;;;6143743;23;20208;-85
2021/04/30 08:05:17;;;;;;;23.17;15.10;;;8.00;57.90;;;;;;6147278;23;20184;-84
2021/04/30 08:07:44;;;;;;;18.15;13.52;;;8.10;57.50;;;;;;6144615;23;20181;-79
2021/04/30 08:10:12;;;;;;;16.13;14.10;;;8.10;55.50;;;;;;6139288;23;20200;-79
2021/04/30 08:12:38;;;;;;;15.98;14.25;;;8.10;56.70;;;;;;6150511;23;20164;-81
2021/04/30 08:15:07;;;;;;;18.23;14.13;;;8.00;56.50;;;;;;6151357;23;20181;-80
2021/04/30 08:17:34;;;;;;;18.65;14.05;;;8.00;57.90;;;;;;6150594;23;20181;-80
2021/04/30 08:20:03;;;;;;;20.63;14.98;;;8.00;57.90;;;;;;6151159;23;20191;-78
2021/04/30 08:22:30;;;;;;;16.98;13.90;;;7.90;59.30;;;;;;6152385;23;20165;-79
2021/04/30 08:24:57;;;;;;;17.55;14.63;;;7.90;59.40;;;;;;6152884;23;20161;-80
2021/04/30 08:27:25;;;;;;;21.13;15.55;;;7.80;59.90;;;;;;6152915;23;20165;-82
2021/04/30 08:29:52;;;;;;;23.55;16.63;;;7.80;60.50;;;;;;6153051;23;20248;-83
2021/04/30 08:32:20;;;;;;;22.63;18.02;;;7.80;61.90;;;;;;6150955;23;20175;-81
2021/04/30 08:34:47;;;;;;;19.33;16.30;;;7.80;63.20;;;;;;6144712;23;20177;-80
2021/04/30 08:37:14;;;;;;;22.25;16.60;;;7.80;64.70;;;;;;6145624;23;20212;-80
2021/04/30 08:39:41;;;;;;;18.88;16.38;;;7.70;66.60;;;;;;6145910;23;20236;-79
2021/04/30 08:42:08;;;;;;;23.60;17.33;;;7.60;66.50;;;;;;6135056;23;20185;-83
2021/04/30 08:44:36;;;;;;;23.05;18.25;;;7.60;69.00;;;;;;6131392;23;20188;-79
2021/04/30 08:47:02;;;;;;;21.42;17.67;;;7.60;70.90;;;;;;6133541;23;20185;-80
2021/04/30 08:49:30;;;;;;;22.42;16.90;;;7.60;72.50;;;;;;6138428;23;20227;-79
2021/04/30 08:51:56;;;;;;;23.95;18.05;;;7.50;70.00;;;;;;6135977;23;20207;-78
2021/04/30 08:54:23;;;;;;;19.42;17.08;;;7.50;71.20;;;;;;6144517;23;20191;-80
2021/04/30 08:56:52;;;;;;;22.08;17.35;;;7.40;72.20;;;;;;6143829;23;20654;-78
2021/04/30 08:59:21;;;;;;;22.77;17.58;;;7.30;73.90;;;;;;6141160;23;20267;-77
2021/04/30 09:01:47;;;;;;;24.15;18.35;;;7.20;74.90;;;;;;6145914;23;20168;-78
2021/04/30 09:04:14;;;;;;;23.88;18.38;;;7.20;77.20;;;;;;6148055;23;20211;-79
2021/04/30 09:06:42;;;;;;;26.50;19.40;;;7.20;78.60;;;;;;6148409;23;20177;-80
2021/04/30 09:09:10;;;;;;;26.88;20.17;;;7.20;80.30;;;;;;6141127;23;20251;-79
2021/04/30 09:11:39;;;;;;;27.92;21.45;;;7.30;82.10;;;;;;6135160;23;20177;-78
2021/04/30 09:14:29;;;;;;;28.48;21.60;;;7.20;83.10;;;;;;6140062;23;20196;-79
2021/04/30 09:17:04;;;;;;;30.80;20.83;;;7.30;83.40;;;;;;6148049;23;20176;-78
2021/04/30 09:19:33;;;;;;;28.15;21.23;;;7.30;85.00;;;;;;6134727;23;20208;-80
2021/04/30 09:22:02;;;;;;;27.20;21.10;;;7.40;86.20;;;;;;6129128;23;20243;-78
2021/04/30 09:24:32;;;;;;;28.33;20.63;;;7.50;87.00;;;;;;6131710;23;20180;-77
2021/04/30 09:27:06;;;;;;;29.60;21.42;;;7.30;85.50;;;;;;6133513;23;20181;-77
2021/04/30 09:29:34;;;;;;;27.05;20.92;;;7.40;85.50;;;;;;6130880;23;20208;-78
2021/04/30 09:32:01;;;;;;;28.65;20.65;;;7.60;86.70;;;;;;6133666;23;20180;-80
2021/04/30 09:34:35;;;;;;;21.42;18.75;;;7.70;84.90;;;;;;6133758;23;20180;-80
2021/04/30 09:37:22;;;;;;;20.70;17.38;;;7.70;83.20;;;;;;6146746;23;20164;-78
2021/04/30 09:39:58;;;;;;;22.13;17.33;;;7.60;77.90;;;;;;6152390;23;20239;-80
2021/04/30 09:42:26;;;;;;;23.75;17.48;;;7.50;76.70;;;;;;6146770;23;20279;-79
2021/04/30 09:44:54;;;;;;;20.65;16.83;;;7.60;79.40;;;;;;6131089;23;20239;-78
2021/04/30 09:47:24;;;;;;;21.95;17.27;;;7.60;76.90;;;;;;6132988;23;20188;-79
2021/04/30 09:49:53;;;;;;;23.63;18.20;;;7.80;76.00;;;;;;6130885;23;20204;-78
2021/04/30 09:52:25;;;;;;;20.10;16.30;;;7.50;75.70;;;;;;6131227;23;20169;-78
2021/04/30 09:54:54;;;;;;;23.38;17.48;;;7.50;75.10;;;;;;6131806;23;20717;-80
2021/04/30 09:57:23;;;;;;;22.17;16.77;;;7.40;75.10;;;;;;6133859;23;20176;-77
2021/04/30 09:59:57;;;;;;;24.35;18.10;;;7.30;75.80;;;;;;6132310;23;20679;-78
2021/04/30 10:02:24;;;;;;;26.17;19.02;;;7.20;78.80;;;;;;6131174;23;20180;-78
2021/04/30 10:05:01;;;;;;;27.63;19.77;;;7.00;80.60;;;;;;6131175;23;20184;-78
2021/04/30 10:07:30;;;;;;;22.70;17.40;;;7.10;80.90;;;;;;6142822;23;20352;-80
2021/04/30 10:10:09;;;;;;;21.98;17.95;;;7.20;80.20;;;;;;6139752;23;20204;-80
2021/04/30 10:12:37;;;;;;;24.30;18.67;;;7.20;77.20;;;;;;6138490;23;20188;-80
2021/04/30 10:15:06;;;;;;;25.05;18.35;;;7.20;76.10;;;;;;6140378;23;20176;-78
2021/04/30 10:17:33;;;;;;;26.48;18.58;;;7.20;76.50;;;;;;6136678;23;20180;-78
2021/04/30 10:20:00;;;;;;;23.52;18.58;;;7.10;79.50;;;;;;6134536;23;20201;-78
2021/04/30 10:22:29;;;;;;;26.63;19.63;;;6.80;78.90;;;;;;6137946;23;20564;-77
2021/04/30 10:24:57;;;;;;;26.33;19.38;;;6.90;83.00;;;;;;6140720;23;20250;-80
2021/04/30 10:27:28;;;;;;;29.02;20.45;;;7.00;84.40;;;;;;6137806;23;20204;-78
2021/04/30 10:30:21;;;;;;;23.80;18.33;;;7.00;86.00;;;;;;6145938;23;20212;-78
2021/04/30 10:32:52;;;;;;;22.98;17.83;;;7.30;86.30;;;;;;6127651;23;20184;-83
2021/04/30 10:35:27;;;;;;;22.73;18.73;;;7.40;82.70;;;;;;6145227;23;20168;-80
2021/04/30 10:37:59;;;;;;;24.30;19.17;;;7.30;82.20;;;;;;6140600;23;20203;-81
2021/04/30 10:40:26;;;;;;;26.15;18.45;;;7.50;83.50;;;;;;6145031;23;20219;-78
2021/04/30 10:42:53;;;;;;;24.08;18.67;;;7.30;81.10;;;;;;6150231;23;20171;-77
2021/04/30 10:45:20;;;;;;;23.80;18.80;;;7.40;83.20;;;;;;6150084;23;20195;-81
2021/04/30 10:48:05;;;;;;;21.17;17.52;;;7.60;83.60;;;;;;6145627;23;20204;-78
2021/04/30 10:50:31;;;;;;;21.13;17.20;;;7.70;83.70;;;;;;6148456;23;20204;-77
2021/04/30 10:53:23;;;;;;;25.17;18.65;;;7.70;81.60;;;;;;6149781;23;20191;-77
2021/04/30 10:55:50;;;;;;;23.90;18.40;;;7.80;83.00;;;;;;6151177;23;20168;-77
2021/04/30 10:58:31;;;;;;;22.90;18.00;;;7.80;80.30;;;;;;6149454;23;20252;-81
2021/04/30 11:00:57;;;;;;;25.40;17.88;;;7.80;79.60;;;;;;6149190;23;20200;-80
2021/04/30 11:03:25;;;;;;;22.90;17.88;;;7.60;77.70;;;;;;6150642;23;20184;-83
2021/04/30 11:05:59;;;;;;;21.13;17.08;;;7.60;78.70;;;;;;6149706;23;20181;-76
2021/04/30 11:08:49;;;;;;;24.60;19.52;;;7.80;79.60;;;;;;6147646;23;20161;-81
2021/04/30 11:11:16;;;;;;;24.05;19.05;;;8.00;81.40;;;;;;6134858;23;20212;-78
2021/04/30 11:14:27;;;;;;;20.50;17.20;;;8.20;81.30;;;;;;6145703;23;20203;-78
2021/04/30 11:16:56;;;;;;;21.95;16.40;;;8.10;75.60;;;;;;6135670;23;20607;-79
2021/04/30 11:19:24;;;;;;;22.13;17.42;;;8.00;75.50;;;;;;6138117;23;20205;-79
2021/04/30 11:21:54;;;;;;;17.90;15.15;;;8.20;75.30;;;;;;6142812;23;20177;-78
2021/04/30 11:24:42;;;;;;;18.85;14.43;;;8.20;73.80;;;;;;6135368;23;20169;-79
2021/04/30 11:27:38;;;;;;;19.30;14.98;;;8.10;71.30;;;;;;6134276;23;20169;-79
2021/04/30 11:30:22;;;;;;;17.88;15.40;;;7.90;69.90;;;;;;6140451;23;20217;-78
2021/04/30 11:32:55;;;;;;;22.58;16.30;;;8.00;71.00;;;;;;6142741;23;20187;-78
2021/04/30 11:35:22;;;;;;;16.75;14.15;;;8.00;69.60;;;;;;6140399;23;20173;-79
2021/04/30 11:37:50;;;;;;;13.00;11.63;;;8.00;67.50;;;;;;6141400;23;20208;-79
2021/04/30 11:40:17;;;;;;;15.35;13.07;;;7.50;65.50;;;;;;6138372;23;20217;-79
2021/04/30 11:42:44;;;;;;;16.55;13.07;;;7.70;67.60;;;;;;6145967;23;20181;-78
2021/04/30 11:45:11;;;;;;;18.33;12.80;;;7.80;66.70;;;;;;6150920;23;20177;-77
2021/04/30 11:47:40;;;;;;;13.27;11.88;;;8.00;66.80;;;;;;6149864;23;20220;-79
2021/04/30 11:50:10;;;;;;;15.80;12.00;;;8.00;62.50;;;;;;6151779;23;20201;-77
2021/04/30 11:52:41;;;;;;;15.65;12.88;;;8.00;62.10;;;;;;6151773;23;20173;-82
2021/04/30 11:55:12;;;;;;;16.05;12.55;;;8.00;64.30;;;;;;6146476;23;20169;-80
2021/04/30 11:57:40;;;;;;;14.20;12.13;;;8.30;67.10;;;;;;6147346;23;20173;-82
2021/04/30 12:00:12;;;;;;;14.75;12.35;;;8.70;67.40;;;;;;6148094;23;20232;-81
2021/04/30 12:02:38;;;;;;;16.77;14.20;;;8.80;64.60;;;;;;6146681;23;20698;-82
2021/04/30 12:07:48;;;;;;;15.98;12.77;;;7.90;66.80;;;;;;6149445;23;20212;-79
2021/04/30 12:10:24;;;;;;;18.00;12.68;;;8.00;69.90;;;;;;6150421;23;20211;-78
2021/04/30 12:12:50;;;;;;;15.85;12.88;;;8.40;69.40;;;;;;6150967;23;20164;-77
2021/04/30 12:15:28;;;;;;;16.00;12.38;;;8.50;68.50;;;;;;6151765;23;20172;-77
2021/04/30 12:17:54;;;;;;;14.38;12.73;;;8.00;65.30;;;;;;6151175;23;20192;-77
2021/04/30 12:20:23;;;;;;;19.30;13.00;;;8.10;69.50;;;;;;6151573;23;20188;-79
2021/04/30 12:22:54;;;;;;;16.52;13.70;;;8.10;73.10;;;;;;6150986;23;20207;-83
2021/04/30 12:25:27;;;;;;;15.30;13.23;;;8.30;71.50;;;;;;6150913;23;20165;-80
2021/04/30 12:27:54;;;;;;;13.25;11.85;;;8.30;73.10;;;;;;6147647;23;20173;-82
2021/04/30 12:30:27;;;;;;;16.73;13.90;;;8.20;67.00;;;;;;6149746;23;20205;-81
2021/04/30 12:32:54;;;;;;;16.35;12.32;;;8.60;65.90;;;;;;6152031;23;20169;-82
2021/04/30 12:35:20;;;;;;;13.77;11.75;;;8.20;67.70;;;;;;6149021;23;20176;-83
2021/04/30 12:37:47;;;;;;;13.73;12.15;;;8.60;67.50;;;;;;6145092;23;20176;-81
2021/04/30 12:40:15;;;;;;;12.40;10.70;;;9.00;65.70;;;;;;6148660;23;20215;-77
2021/04/30 12:42:49;;;;;;;13.40;12.02;;;9.10;63.70;;;;;;6151173;23;20177;-78
2021/04/30 12:45:16;;;;;;;12.55;10.60;;;9.10;63.00;;;;;;6150847;23;20169;-77
2021/04/30 12:47:45;;;;;;;12.30;11.00;;;9.20;63.40;;;;;;6149827;23;20184;-77
2021/04/30 12:50:13;;;;;;;12.90;11.55;;;9.10;62.90;;;;;;6149283;23;20219;-77
2021/04/30 12:52:40;;;;;;;13.30;11.52;;;9.10;63.40;;;;;;6149146;23;20184;-78